Time;durP1;ratioP1;P1;durP2;ratioP2;P2;SDS_P1;SDS_P2;PMS_P1;PMS_P2;Temp;Humidity;BMP_temperature;BMP_pressure;BME280_temperature;BME280_humidity;BME280_pressure;Samples;Min_cycle;Max_cycle;Signal;HPM_P1;HPM_P2
2021/12/16 00:02:07;;;;;;;75.57;27.10;;;;;;;3.91;100.00;102433.91;5116091;28;20052;-49
2021/12/16 00:07:32;;;;;;;71.32;27.55;;;;;;;3.87;100.00;102432.19;5105667;28;20056;-51
2021/12/16 00:10:11;;;;;;;72.10;26.85;;;;;;;3.91;100.00;102415.53;5116667;28;20056;-49
2021/12/16 00:32:36;;;;;;;65.45;26.42;;;;;;;3.89;100.00;102436.53;5116455;28;20091;-49
2021/12/16 00:35:06;;;;;;;48.30;19.23;;;;;;;3.87;100.00;102437.44;5115741;28;20056;-52
2021/12/16 00:37:34;;;;;;;87.40;27.35;;;;;;;3.82;100.00;102434.81;5115712;28;20073;-52
2021/12/16 00:40:06;;;;;;;57.90;25.23;;;;;;;3.92;100.00;102435.69;5115880;28;20055;-51
2021/12/16 00:42:42;;;;;;;73.37;27.77;;;;;;;3.87;100.00;102427.81;5114891;28;20067;-50
2021/12/16 00:48:22;;;;;;;79.05;27.75;;;;;;;3.82;100.00;102433.97;5078833;28;20052;-50
2021/12/16 00:56:22;;;;;;;72.30;29.40;;;;;;;3.79;100.00;102428.72;5116503;28;20415;-50
2021/12/16 00:58:55;;;;;;;101.32;29.75;;;;;;;3.82;100.00;102423.47;5115247;28;20064;-49
2021/12/16 01:01:36;;;;;;;115.45;30.55;;;;;;;3.81;100.00;102426.94;5115018;28;20085;-50
2021/12/16 01:04:40;;;;;;;79.82;30.02;;;;;;;3.77;100.00;102415.59;5114931;28;20138;-49
2021/12/16 01:07:32;;;;;;;74.88;28.05;;;;;;;3.77;100.00;102422.59;5115487;28;20131;-50
2021/12/16 01:33:28;;;;;;;64.78;26.02;;;;;;;3.76;100.00;102420.84;5115474;27;20436;-51
2021/12/16 01:35:20;;;;;;;78.65;24.98;;;;;;;3.58;100.00;102412.16;5115772;28;20048;-49
2021/12/16 01:38:37;;;;;;;95.43;25.60;;;;;;;3.52;100.00;102401.66;5115918;28;20086;-49
2021/12/16 01:49:35;;;;;;;63.90;26.27;;;;;;;3.42;100.00;102410.44;5105950;28;20055;-51
2021/12/16 01:52:25;;;;;;;57.22;23.17;;;;;;;3.28;100.00;102413.97;5114340;28;20055;-48
2021/12/16 01:55:06;;;;;;;58.17;21.55;;;;;;;3.21;100.00;102420.09;5118471;28;20060;-50
2021/12/16 01:57:39;;;;;;;53.72;22.30;;;;;;;3.27;100.00;102416.59;5119449;28;20059;-49
2021/12/16 02:00:12;;;;;;;62.20;23.77;;;;;;;3.26;100.00;102423.59;5120218;28;20063;-50
2021/12/16 02:02:45;;;;;;;126.13;27.08;;;;;;;3.29;100.00;102426.19;5119354;28;20085;-51
2021/12/16 02:05:26;;;;;;;68.43;23.48;;;;;;;3.38;100.00;102421.81;5118673;28;20074;-51
2021/12/16 02:08:17;;;;;;;52.60;23.35;;;;;;;3.39;100.00;102418.31;5119290;27;20055;-50
2021/12/16 02:10:57;;;;;;;71.68;23.70;;;;;;;3.47;100.00;102432.28;5118332;27;20063;-48
2021/12/16 02:27:13;;;;;;;129.80;26.35;;;;;;;3.37;100.00;102430.56;5119616;27;20052;-50
2021/12/16 02:27:50;;;;;;;90.32;22.73;;;;;;;3.30;100.00;102427.06;5119465;28;20063;-48
2021/12/16 02:33:22;;;;;;;103.63;22.00;;;;;;;3.34;100.00;102442.78;5118481;28;20422;-51
2021/12/16 02:36:01;;;;;;;79.82;20.45;;;;;;;3.27;100.00;102435.81;5117860;28;20071;-51
2021/12/16 02:38:33;;;;;;;97.20;21.10;;;;;;;3.24;100.00;102440.19;5119213;27;20058;-52
2021/12/16 02:41:02;;;;;;;186.85;25.13;;;;;;;3.21;100.00;102441.09;5117940;28;20059;-49
2021/12/16 02:49:02;;;;;;;99.95;22.92;;;;;;;3.16;100.00;102434.94;5118489;28;20056;-50
2021/12/16 02:51:35;;;;;;;89.38;22.25;;;;;;;3.12;100.00;102431.44;5118324;28;20062;-52
2021/12/16 02:54:06;;;;;;;116.22;24.42;;;;;;;3.20;100.00;102433.22;5118406;28;20051;-50
2021/12/16 02:56:36;;;;;;;136.27;21.00;;;;;;;3.06;100.00;102434.09;5117766;27;20052;-50
2021/12/16 02:59:05;;;;;;;77.35;22.38;;;;;;;3.07;100.00;102432.34;5117355;28;20137;-49
2021/12/16 03:01:37;;;;;;;57.38;21.10;;;;;;;3.10;100.00;102427.09;5117887;28;20062;-51
2021/12/16 03:04:06;;;;;;;;;;;;;;;3.15;100.00;102430.59;5118467;28;20056;-50
2021/12/16 03:06:34;;;;;;;160.70;24.90;;;;;;;3.13;100.00;102430.59;5117719;28;19927;-50
2021/12/16 03:09:06;;;;;;;101.63;24.45;;;;;;;3.11;100.00;102428.81;5117767;28;20078;-50
2021/12/16 03:11:43;;;;;;;96.35;23.30;;;;;;;3.15;100.00;102436.69;5118350;28;20078;-48
2021/12/16 03:14:30;;;;;;;119.78;24.80;;;;;;;3.10;100.00;102446.31;5117159;27;20062;-49
2021/12/16 03:19:55;;;;;;;64.05;21.48;;;;;;;3.14;100.00;102434.97;5117263;28;20059;-51
2021/12/16 03:22:44;;;;;;;92.07;21.27;;;;;;;3.16;100.00;102427.97;5116971;28;20052;-49
2021/12/16 03:25:21;;;;;;;80.88;21.15;;;;;;;3.16;100.00;102432.31;5117703;28;20055;-50
2021/12/16 03:28:24;;;;;;;127.88;22.70;;;;;;;3.10;100.00;102432.34;5117199;28;20051;-50
2021/12/16 03:36:36;;;;;;;210.20;25.45;;;;;;;3.11;100.00;102434.06;5106819;28;20411;-51
2021/12/16 03:39:10;;;;;;;204.35;23.45;;;;;;;3.13;100.00;102427.97;5118057;28;20060;-49
2021/12/16 03:41:39;;;;;;;131.00;22.30;;;;;;;3.12;100.00;102428.81;5117590;28;20418;-49
2021/12/16 03:44:11;;;;;;;59.88;21.63;;;;;;;3.15;100.00;102438.44;5117698;28;20056;-49
2021/12/16 03:46:42;;;;;;;107.47;21.83;;;;;;;3.12;100.00;102431.44;5117689;28;20074;-49
2021/12/16 03:49:14;;;;;;;194.85;24.45;;;;;;;3.13;100.00;102432.34;5116472;28;20055;-48
2021/12/16 03:51:44;;;;;;;;;;;;;;;3.16;100.00;102432.31;5117509;28;20093;-48
2021/12/16 03:54:15;;;;;;;56.17;17.77;;;;;;;3.11;100.00;102428.81;5116581;28;19919;-49
2021/12/16 03:56:45;;;;;;;85.65;18.15;;;;;;;3.12;100.00;102431.44;5116263;28;20537;-49
2021/12/16 03:59:16;;;;;;;56.38;18.02;;;;;;;3.12;100.00;102436.69;5116873;28;20063;-49
2021/12/16 04:01:45;;;;;;;152.80;20.35;;;;;;;3.03;100.00;102439.31;5117569;27;20418;-51
2021/12/16 04:04:13;;;;;;;105.47;19.40;;;;;;;3.02;100.00;102439.31;5117578;28;20070;-49
2021/12/16 04:06:42;;;;;;;62.92;15.07;;;;;;;3.03;100.00;102444.56;5117407;27;20052;-49
2021/12/16 04:09:13;;;;;;;65.45;14.95;;;;;;;3.03;100.00;102436.72;5116302;27;20068;-49
2021/12/16 04:11:50;;;;;;;202.00;19.30;;;;;;;3.07;100.00;102445.44;5116069;28;20137;-51
2021/12/16 04:14:19;;;;;;;138.85;16.00;;;;;;;3.10;100.00;102453.31;5117114;28;20048;-49
2021/12/16 04:16:49;;;;;;;46.08;13.55;;;;;;;3.11;100.00;102455.03;5115591;28;20055;-51
2021/12/16 04:19:20;;;;;;;93.07;18.08;;;;;;;3.13;100.00;102463.81;5115855;28;20052;-50
2021/12/16 04:21:53;;;;;;;90.18;17.05;;;;;;;3.14;100.00;102460.28;5116011;28;20066;-49
2021/12/16 04:24:22;;;;;;;82.47;14.13;;;;;;;3.07;100.00;102461.19;5115759;28;20054;-51
2021/12/16 04:26:55;;;;;;;152.27;16.08;;;;;;;2.96;100.00;102471.66;5116261;28;20052;-51
2021/12/16 04:29:28;;;;;;;78.50;14.00;;;;;;;2.88;100.00;102463.78;5115679;28;20062;-49
2021/12/16 04:31:58;;;;;;;133.95;14.75;;;;;;;2.82;100.00;102466.38;5116019;28;20063;-51
2021/12/16 04:34:26;;;;;;;103.22;14.77;;;;;;;2.78;100.00;102462.88;5115780;28;20056;-51
2021/12/16 04:36:55;;;;;;;100.78;13.80;;;;;;;2.75;100.00;102467.25;5116311;28;20062;-49
2021/12/16 04:39:25;;;;;;;37.92;12.95;;;;;;;2.75;100.00;102462.88;5116278;28;20062;-49
2021/12/16 04:41:56;;;;;;;85.22;15.88;;;;;;;2.78;100.00;102475.13;5115322;28;20063;-48
2021/12/16 04:44:25;;;;;;;78.80;15.05;;;;;;;2.77;100.00;102476.00;5115657;28;20071;-49
2021/12/16 04:46:54;;;;;;;72.57;13.98;;;;;;;2.78;100.00;102477.75;5115509;28;20056;-51
2021/12/16 04:49:23;;;;;;;86.90;14.98;;;;;;;2.79;100.00;102482.09;5115843;27;20121;-49
2021/12/16 04:51:55;;;;;;;82.85;15.75;;;;;;;2.77;100.00;102478.63;5115610;28;20060;-50
2021/12/16 04:54:29;;;;;;;133.23;15.23;;;;;;;2.78;100.00;102477.75;5116057;28;20078;-49
2021/12/16 04:57:00;;;;;;;54.67;14.13;;;;;;;2.80;100.00;102481.25;5116226;28;20070;-49
2021/12/16 04:59:29;;;;;;;66.82;14.32;;;;;;;2.87;100.00;102479.50;5116008;28;20487;-49
2021/12/16 05:01:59;;;;;;;49.40;14.82;;;;;;;2.91;100.00;102476.03;5116045;28;20066;-49
2021/12/16 05:04:28;;;;;;;69.13;14.27;;;;;;;2.96;100.00;102475.16;5115016;28;20063;-51
2021/12/16 05:06:57;;;;;;;173.63;17.77;;;;;;;2.95;100.00;102476.03;5115560;28;20126;-51
2021/12/16 05:12:15;;;;;;;75.43;14.45;;;;;;;2.87;100.00;102472.50;5114850;28;20051;-49
2021/12/16 05:14:45;;;;;;;92.60;15.52;;;;;;;2.85;100.00;102481.25;5115720;28;20411;-48
2021/12/16 05:17:24;;;;;;;156.25;16.20;;;;;;;2.82;100.00;102487.34;5115577;28;20506;-52
2021/12/16 05:19:53;;;;;;;109.40;14.40;;;;;;;2.84;100.00;102488.25;5115028;28;20051;-49
2021/12/16 05:25:18;;;;;;;159.15;17.10;;;;;;;2.79;100.00;102484.72;5115234;28;20052;-49
2021/12/16 05:27:47;;;;;;;116.90;15.68;;;;;;;2.81;100.00;102475.16;5114802;28;20052;-48
2021/12/16 05:30:16;;;;;;;91.75;16.52;;;;;;;2.76;100.00;102464.66;5115850;28;20070;-49
2021/12/16 05:32:46;;;;;;;81.03;14.88;;;;;;;2.85;100.00;102482.13;5115082;28;20059;-49
2021/12/16 05:35:16;;;;;;;131.93;17.13;;;;;;;2.91;100.00;102484.75;5115416;28;20056;-50
2021/12/16 05:37:45;;;;;;;51.88;14.90;;;;;;;3.00;100.00;102483.03;5115394;28;20122;-51
2021/12/16 05:40:16;;;;;;;57.55;14.57;;;;;;;3.03;100.00;102483.03;5115021;28;20056;-49
2021/12/16 05:42:44;;;;;;;60.55;14.77;;;;;;;3.04;100.00;102483.00;5114471;28;20066;-49
2021/12/16 05:45:14;;;;;;;134.25;17.40;;;;;;;3.08;100.00;102482.16;5115807;28;20055;-48
2021/12/16 05:47:42;;;;;;;92.35;16.20;;;;;;;3.06;100.00;102480.38;5115211;28;20051;-49
2021/12/16 05:50:11;;;;;;;55.88;15.15;;;;;;;3.09;100.00;102483.03;5115375;28;20051;-51
2021/12/16 05:52:39;;;;;;;86.60;14.45;;;;;;;3.09;100.00;102478.69;5114494;28;20105;-48
2021/12/16 05:55:09;;;;;;;72.90;13.88;;;;;;;3.12;100.00;102477.78;5115366;28;20056;-49
2021/12/16 05:57:38;;;;;;;67.25;14.52;;;;;;;3.11;100.00;102482.16;5114745;28;20051;-50
2021/12/16 06:00:09;;;;;;;165.05;20.42;;;;;;;3.13;100.00;102496.16;5114536;28;20058;-50
2021/12/16 06:02:40;;;;;;;44.25;14.00;;;;;;;3.11;100.00;102494.38;5114790;28;20051;-48
2021/12/16 06:05:09;;;;;;;60.72;13.90;;;;;;;3.08;100.00;102489.16;5114124;28;20579;-49
2021/12/16 06:07:37;;;;;;;51.60;12.73;;;;;;;3.16;100.00;102495.25;5114414;28;20057;-49
2021/12/16 06:10:11;;;;;;;41.28;13.43;;;;;;;3.11;100.00;102491.75;5114382;28;20062;-48
2021/12/16 06:12:39;;;;;;;54.63;13.00;;;;;;;3.11;100.00;102504.88;5114114;28;20056;-49
2021/12/16 06:15:20;;;;;;;64.95;12.30;;;;;;;3.06;100.00;102509.25;5114114;28;20062;-49
2021/12/16 06:28:44;;;;;;;52.40;13.77;;;;;;;3.13;100.00;102509.25;5113974;28;20060;-49
2021/12/16 06:31:12;;;;;;;122.60;15.55;;;;;;;3.16;100.00;102505.75;5114950;28;20418;-51
2021/12/16 06:33:42;;;;;;;164.90;19.00;;;;;;;3.10;100.00;102503.13;5113896;28;20060;-51
2021/12/16 06:36:10;;;;;;;42.22;15.10;;;;;;;3.16;100.00;102511.00;5114702;28;20056;-49
2021/12/16 06:38:38;;;;;;;46.70;15.30;;;;;;;3.21;100.00;102514.53;5114075;28;20052;-51
2021/12/16 06:41:08;;;;;;;108.47;16.20;;;;;;;3.17;100.00;102507.50;5117827;28;20067;-49
2021/12/16 06:43:37;;;;;;;45.08;15.65;;;;;;;3.16;100.00;102516.22;5117462;28;20138;-50
2021/12/16 06:46:09;;;;;;;45.83;13.82;;;;;;;3.19;100.00;102511.00;5117726;28;20482;-49
2021/12/16 06:48:41;;;;;;;78.13;15.18;;;;;;;3.23;100.00;102510.16;5117738;28;20495;-51
2021/12/16 06:51:17;;;;;;;94.17;13.80;;;;;;;3.19;100.00;102516.25;5118452;28;20066;-49
2021/12/16 06:53:51;;;;;;;111.07;16.45;;;;;;;3.23;100.00;102518.00;5118822;27;20074;-49
2021/12/16 06:56:25;;;;;;;215.68;16.08;;;;;;;3.19;100.00;102525.88;5118744;27;20078;-51
2021/12/16 06:59:04;;;;;;;72.35;15.15;;;;;;;3.15;100.00;102520.63;5118319;28;20063;-49
2021/12/16 07:01:38;;;;;;;53.08;14.57;;;;;;;3.17;100.00;102525.88;5118423;28;20051;-49
2021/12/16 07:04:11;;;;;;;239.10;18.27;;;;;;;3.14;100.00;102529.38;5117591;28;20056;-51
2021/12/16 07:06:42;;;;;;;147.95;17.27;;;;;;;3.16;100.00;102534.59;5118691;28;20108;-50
2021/12/16 07:09:13;;;;;;;127.32;16.65;;;;;;;3.13;100.00;102532.88;5121515;27;20070;-50
2021/12/16 07:11:42;;;;;;;54.63;15.55;;;;;;;3.15;100.00;102541.59;5098027;28;20055;-50
2021/12/16 07:14:15;;;;;;;92.40;15.18;;;;;;;3.15;100.00;102545.97;5116661;28;20055;-52
2021/12/16 07:16:44;;;;;;;77.75;14.35;;;;;;;3.03;100.00;102551.22;5111466;28;20055;-49
2021/12/16 07:19:12;;;;;;;55.10;13.45;;;;;;;3.01;100.00;102547.69;5101312;28;20058;-49
2021/12/16 07:21:44;;;;;;;98.57;15.18;;;;;;;2.98;100.00;102548.56;5105163;28;20063;-52
2021/12/16 07:24:16;;;;;;;68.32;14.35;;;;;;;3.01;100.00;102558.19;5100428;28;20071;-48
2021/12/16 07:26:44;;;;;;;49.03;14.32;;;;;;;3.04;100.00;102558.19;5099518;28;20139;-51
2021/12/16 07:29:13;;;;;;;61.90;15.02;;;;;;;3.12;100.00;102553.84;5117080;28;20533;-49
2021/12/16 07:31:41;;;;;;;53.38;13.60;;;;;;;3.15;100.00;102562.56;5117323;27;20082;-49
2021/12/16 07:34:10;;;;;;;56.22;14.00;;;;;;;3.09;100.00;102551.19;5117897;28;20051;-48
2021/12/16 07:36:43;;;;;;;42.95;13.57;;;;;;;3.10;100.00;102552.97;5117174;28;20411;-49
2021/12/16 07:39:13;;;;;;;105.43;17.17;;;;;;;3.09;100.00;102546.84;5116893;28;20558;-52
2021/12/16 07:41:46;;;;;;;99.90;14.93;;;;;;;3.05;100.00;102549.47;5116788;28;20051;-49
2021/12/16 07:44:16;;;;;;;104.45;16.42;;;;;;;3.04;100.00;102547.69;5116534;28;20066;-50
2021/12/16 07:46:47;;;;;;;75.10;16.75;;;;;;;3.13;100.00;102542.47;5116240;28;20048;-48
2021/12/16 07:49:18;;;;;;;110.57;17.85;;;;;;;3.13;100.00;102547.72;5096334;28;20319;-51
2021/12/16 07:51:48;;;;;;;59.13;15.73;;;;;;;3.12;100.00;102562.56;5095764;28;20064;-50
2021/12/16 07:54:18;;;;;;;78.18;17.30;;;;;;;3.11;100.00;102557.31;5096781;28;20376;-51
2021/12/16 07:56:49;;;;;;;52.58;16.42;;;;;;;3.07;100.00;102560.81;5110221;28;20055;-50
2021/12/16 07:59:17;;;;;;;66.55;15.25;;;;;;;3.11;100.00;102566.09;5106908;28;20060;-52
2021/12/16 08:01:46;;;;;;;62.28;15.95;;;;;;;3.11;100.00;102557.31;5095857;28;20067;-48
2021/12/16 08:04:20;;;;;;;78.20;16.52;;;;;;;3.14;100.00;102559.94;5097126;28;20074;-48
2021/12/16 08:06:52;;;;;;;54.45;16.73;;;;;;;3.21;100.00;102566.97;5096747;28;20058;-51
2021/12/16 08:09:21;;;;;;;123.97;19.10;;;;;;;3.28;100.00;102558.22;5095689;28;20052;-51
2021/12/16 08:11:50;;;;;;;87.97;17.70;;;;;;;3.29;100.00;102565.22;5095863;28;20063;-48
2021/12/16 08:14:20;;;;;;;70.15;18.15;;;;;;;3.38;100.00;102560.84;5096667;28;20398;-49
2021/12/16 08:16:48;;;;;;;56.95;17.20;;;;;;;3.35;100.00;102570.47;5096835;28;20083;-48
2021/12/16 08:19:16;;;;;;;62.63;16.73;;;;;;;3.35;100.00;102570.47;5095721;28;20059;-51
2021/12/16 08:21:45;;;;;;;86.60;19.45;;;;;;;3.25;100.00;102563.47;5095610;28;20064;-51
2021/12/16 08:24:16;;;;;;;51.78;16.42;;;;;;;3.27;100.00;102574.84;5095343;28;20056;-51
2021/12/16 08:26:46;;;;;;;87.40;17.73;;;;;;;3.30;100.00;102577.47;5095599;28;20131;-48
2021/12/16 08:29:15;;;;;;;96.40;19.13;;;;;;;3.33;100.00;102572.22;5095600;28;20064;-51
2021/12/16 08:31:44;;;;;;;48.88;17.15;;;;;;;3.36;100.00;102581.84;5095825;28;20052;-48
2021/12/16 08:34:13;;;;;;;71.00;16.98;;;;;;;3.39;100.00;102586.22;5095216;28;20062;-49
2021/12/16 08:36:42;;;;;;;64.25;18.42;;;;;;;3.43;100.00;102583.63;5095641;28;20499;-50
2021/12/16 08:39:18;;;;;;;52.88;16.67;;;;;;;3.49;100.00;102583.59;5095028;28;20056;-48
2021/12/16 08:41:53;;;;;;;51.70;16.40;;;;;;;3.46;100.00;102591.50;5096384;28;20105;-49
2021/12/16 08:44:22;;;;;;;92.60;18.95;;;;;;;3.44;100.00;102600.22;5095784;28;20056;-48
2021/12/16 08:46:54;;;;;;;61.30;18.75;;;;;;;3.52;100.00;102593.22;5095179;28;20052;-49
2021/12/16 08:49:22;;;;;;;111.50;20.10;;;;;;;3.35;100.00;102595.84;5095310;28;20504;-51
2021/12/16 08:51:52;;;;;;;115.88;21.35;;;;;;;3.31;100.00;102583.56;5095423;28;20063;-49
2021/12/16 08:54:22;;;;;;;179.35;21.90;;;;;;;3.34;100.00;102592.31;5095613;28;20067;-49
2021/12/16 08:56:50;;;;;;;109.75;21.33;;;;;;;3.30;100.00;102585.34;5095626;28;20059;-49
2021/12/16 08:59:19;;;;;;;125.35;24.15;;;;;;;3.37;100.00;102596.72;5095503;28;20064;-50
2021/12/16 09:01:50;;;;;;;98.03;21.20;;;;;;;3.42;100.00;102592.34;5094538;28;20056;-50
2021/12/16 09:04:22;;;;;;;190.27;24.33;;;;;;;3.47;100.00;102592.34;5094627;28;20059;-49
2021/12/16 09:06:51;;;;;;;143.13;23.48;;;;;;;3.48;100.00;102596.72;5095897;28;20052;-49
2021/12/16 09:09:21;;;;;;;253.57;27.00;;;;;;;3.50;100.00;102597.63;5095908;28;20476;-50
2021/12/16 09:12:04;;;;;;;129.40;22.88;;;;;;;3.44;100.00;102595.84;5094706;28;20056;-51
2021/12/16 09:14:34;;;;;;;114.63;21.23;;;;;;;3.39;100.00;102597.59;5096114;28;20063;-49
2021/12/16 09:17:03;;;;;;;96.53;20.95;;;;;;;3.50;100.00;102601.09;5094653;28;20063;-51
2021/12/16 09:19:31;;;;;;;112.75;21.73;;;;;;;3.60;100.00;102602.00;5094875;28;20063;-49
2021/12/16 09:22:00;;;;;;;77.78;19.77;;;;;;;3.62;100.00;102607.25;5094850;28;20064;-49
2021/12/16 09:24:29;;;;;;;122.78;22.15;;;;;;;3.68;100.00;102602.88;5094760;28;20059;-49
2021/12/16 09:26:57;;;;;;;95.88;21.95;;;;;;;3.72;100.00;102599.34;5094490;28;20062;-50
2021/12/16 09:29:26;;;;;;;146.63;24.30;;;;;;;3.58;100.00;102606.38;5094316;28;20052;-51
2021/12/16 09:31:54;;;;;;;135.30;24.52;;;;;;;3.62;100.00;102605.47;5094763;28;20051;-49
2021/12/16 09:34:22;;;;;;;219.40;30.30;;;;;;;3.55;100.00;102603.75;5094622;28;20056;-48
2021/12/16 09:36:51;;;;;;;98.53;24.67;;;;;;;3.58;100.00;102600.22;5094937;28;20048;-50
2021/12/16 09:39:21;;;;;;;104.15;23.50;;;;;;;3.63;100.00;102596.75;5094648;28;20079;-49
2021/12/16 09:41:53;;;;;;;118.22;24.67;;;;;;;3.75;100.00;102600.22;5094068;28;20052;-50
2021/12/16 09:44:22;;;;;;;98.43;20.42;;;;;;;3.65;100.00;102605.50;5094853;28;20059;-50
2021/12/16 09:46:52;;;;;;;98.80;21.30;;;;;;;3.65;100.00;102610.75;5095471;28;20051;-48
2021/12/16 09:49:21;;;;;;;93.32;21.08;;;;;;;3.54;100.00;102612.47;5094252;28;20499;-50
2021/12/16 09:51:51;;;;;;;72.28;19.52;;;;;;;3.52;100.00;102607.22;5094226;28;20051;-48
2021/12/16 09:54:23;;;;;;;98.03;21.33;;;;;;;3.55;100.00;102609.00;5094687;28;20068;-51
2021/12/16 09:56:54;;;;;;;64.22;19.92;;;;;;;3.64;100.00;102608.97;5094547;28;20064;-51
2021/12/16 09:59:24;;;;;;;79.60;21.48;;;;;;;3.63;100.00;102620.38;5095210;28;20052;-49
2021/12/16 10:01:56;;;;;;;87.18;21.88;;;;;;;3.61;100.00;102616.84;5093903;28;20500;-51
2021/12/16 10:04:31;;;;;;;107.88;22.70;;;;;;;3.66;100.00;102612.47;5094659;28;20091;-51
2021/12/16 10:07:02;;;;;;;81.00;21.25;;;;;;;3.83;100.00;102614.22;5094173;28;20098;-50
2021/12/16 10:09:30;;;;;;;88.72;22.75;;;;;;;3.99;100.00;102620.34;5094591;28;20052;-50
2021/12/16 10:12:06;;;;;;;136.65;26.30;;;;;;;3.86;100.00;102611.59;5094352;28;20056;-48
2021/12/16 10:14:48;;;;;;;87.95;23.85;;;;;;;3.93;100.00;102621.22;5096200;28;20056;-49
2021/12/16 10:17:25;;;;;;;89.45;24.55;;;;;;;4.02;100.00;102621.22;5098686;28;20060;-51
2021/12/16 10:19:54;;;;;;;100.35;22.60;;;;;;;4.11;100.00;102627.34;5098659;28;20052;-49
2021/12/16 10:22:29;;;;;;;107.82;27.45;;;;;;;4.15;100.00;102626.44;5098004;28;20056;-49
2021/12/16 10:24:59;;;;;;;102.43;26.00;;;;;;;4.15;100.00;102634.34;5097655;28;20052;-49
2021/12/16 10:27:30;;;;;;;86.68;25.88;;;;;;;4.29;100.00;102629.94;5098415;28;20048;-49
2021/12/16 10:30:00;;;;;;;88.97;27.02;;;;;;;4.25;100.00;102634.34;5097515;28;20483;-50
2021/12/16 10:32:40;;;;;;;94.30;25.67;;;;;;;4.23;100.00;102624.69;5097565;28;20060;-50
2021/12/16 10:35:13;;;;;;;106.95;26.52;;;;;;;4.30;100.00;102625.56;5097922;28;20168;-49
2021/12/16 10:37:43;;;;;;;89.03;26.15;;;;;;;4.42;100.00;102626.41;5098550;28;20404;-48
2021/12/16 10:40:28;;;;;;;84.03;25.17;;;;;;;4.27;100.00;102621.19;5098234;28;20062;-51
2021/12/16 10:43:00;;;;;;;75.65;24.90;;;;;;;4.36;100.00;102609.78;5098671;28;20067;-48
2021/12/16 10:45:28;;;;;;;;;;;;;;;4.36;100.00;102615.91;5098967;28;20056;-48
2021/12/16 10:48:25;;;;;;;77.60;24.85;;;;;;;4.34;100.00;102617.66;5097450;28;19920;-50
2021/12/16 10:50:59;;;;;;;75.18;25.98;;;;;;;4.30;100.00;102620.28;5051614;28;20062;-51
2021/12/16 10:53:55;;;;;;;68.50;24.30;;;;;;;4.42;100.00;102617.63;5097075;28;20059;-50
2021/12/16 10:56:27;;;;;;;72.30;26.50;;;;;;;4.42;100.00;102621.16;5097414;28;20056;-51
2021/12/16 10:58:58;;;;;;;69.95;24.13;;;;;;;4.50;100.00;102631.63;5097084;28;20142;-50
2021/12/16 11:01:48;;;;;;;60.75;20.40;;;;;;;4.56;100.00;102622.88;5098418;28;20070;-51
2021/12/16 11:04:21;;;;;;;69.70;26.10;;;;;;;4.67;100.00;102626.31;5097891;28;20395;-48
2021/12/16 11:06:55;;;;;;;69.65;26.58;;;;;;;4.69;100.00;102623.69;5097728;28;20130;-50
2021/12/16 11:09:36;;;;;;;61.22;24.58;;;;;;;4.65;100.00;102617.56;5097743;28;20056;-48
2021/12/16 11:12:40;;;;;;;58.53;24.75;;;;;;;4.88;100.00;102619.25;5097587;28;20052;-48
2021/12/16 11:15:25;;;;;;;62.50;25.05;;;;;;;4.80;100.00;102612.22;5095626;28;20059;-50
2021/12/16 11:17:56;;;;;;;55.60;23.17;;;;;;;4.80;100.00;102619.25;5096635;28;20546;-51
2021/12/16 11:20:29;;;;;;;52.05;22.88;;;;;;;4.89;100.00;102616.56;5096897;28;20052;-51
2021/12/16 11:23:01;;;;;;;51.17;22.05;;;;;;;5.00;100.00;102608.66;5096553;28;20055;-49
2021/12/16 11:25:30;;;;;;;;;;;;;;;5.03;100.00;102609.50;5097774;28;20059;-48
2021/12/16 11:28:12;;;;;;;52.10;20.95;;;;;;;5.11;100.00;102612.09;5096702;28;20398;-49
2021/12/16 11:30:45;;;;;;;41.53;19.33;;;;;;;5.13;100.00;102609.47;5096437;28;20052;-49
2021/12/16 11:33:21;;;;;;;48.08;20.20;;;;;;;5.19;100.00;102610.31;5097751;28;20060;-50
2021/12/16 11:35:56;;;;;;;40.83;19.38;;;;;;;5.20;100.00;102609.41;5097696;28;20125;-49
2021/12/16 11:38:32;;;;;;;37.08;18.33;;;;;;;5.15;100.00;102605.91;5097662;28;20059;-49
2021/12/16 11:41:20;;;;;;;34.25;16.65;;;;;;;5.27;100.00;102617.25;5097275;28;20060;-49
2021/12/16 11:44:05;;;;;;;31.58;16.13;;;;;;;5.16;100.00;102610.31;5097309;28;20071;-49
2021/12/16 11:46:39;;;;;;;30.85;16.42;;;;;;;5.32;100.00;102605.81;5096477;28;20415;-50
2021/12/16 11:49:21;;;;;;;30.55;15.68;;;;;;;5.33;100.00;102606.69;5096087;28;20084;-49
2021/12/16 11:51:54;;;;;;;29.67;14.20;;;;;;;5.25;100.00;102606.75;5097118;28;20096;-49
2021/12/16 11:54:24;;;;;;;29.35;14.95;;;;;;;5.32;100.00;102599.69;5096005;28;20060;-50
2021/12/16 11:56:56;;;;;;;31.80;15.38;;;;;;;5.30;100.00;102604.97;5096568;28;20071;-50
2021/12/16 11:59:28;;;;;;;28.75;15.93;;;;;;;5.27;100.00;102596.22;5105456;28;20067;-50
2021/12/16 12:01:58;;;;;;;25.65;13.95;;;;;;;5.29;100.00;102597.06;5116852;28;20056;-51
2021/12/16 12:04:33;;;;;;;29.05;15.85;;;;;;;5.30;100.00;102590.94;5116873;28;20060;-51
2021/12/16 12:07:11;;;;;;;30.30;15.02;;;;;;;5.25;100.00;102593.59;5115050;28;20059;-49
2021/12/16 12:09:41;;;;;;;31.00;16.75;;;;;;;5.18;100.00;102592.75;5096833;28;20052;-48
2021/12/16 12:12:10;;;;;;;32.80;16.13;;;;;;;5.20;100.00;102592.75;5096181;28;20079;-48
2021/12/16 12:14:39;;;;;;;33.05;16.88;;;;;;;5.29;100.00;102594.44;5096379;28;20055;-48
2021/12/16 12:17:12;;;;;;;33.85;17.23;;;;;;;5.20;100.00;102590.97;5103939;28;20541;-53
2021/12/16 12:19:45;;;;;;;39.70;20.15;;;;;;;5.27;100.00;102597.06;5105218;28;20060;-53
2021/12/16 12:22:14;;;;;;;25.33;15.43;;;;;;;5.45;100.00;102603.13;5102679;28;20060;-48
2021/12/16 12:24:46;;;;;;;28.30;15.80;;;;;;;5.40;100.00;102598.75;5115758;28;20059;-49
2021/12/16 12:27:17;;;;;;;25.48;14.45;;;;;;;5.44;100.00;102604.84;5115378;27;20059;-48
2021/12/16 12:29:48;;;;;;;22.80;13.68;;;;;;;5.42;100.00;102595.25;5109710;28;20067;-48
2021/12/16 12:32:21;;;;;;;23.55;13.60;;;;;;;5.49;100.00;102607.47;5107510;28;20532;-49
2021/12/16 12:34:52;;;;;;;22.15;12.75;;;;;;;5.42;100.00;102601.38;5100063;28;20086;-48
2021/12/16 12:37:22;;;;;;;21.77;11.47;;;;;;;5.36;100.00;102590.88;5105681;28;20064;-49
2021/12/16 12:39:55;;;;;;;21.90;12.98;;;;;;;5.66;100.00;102599.44;5108126;28;20060;-48
2021/12/16 12:42:23;;;;;;;21.17;12.75;;;;;;;5.76;100.00;102601.09;5113017;28;20430;-48
2021/12/16 12:44:51;;;;;;;20.85;12.07;;;;;;;5.76;100.00;102601.94;5095947;28;20060;-49
2021/12/16 12:47:23;;;;;;;19.15;12.07;;;;;;;5.70;100.00;102603.75;5095217;28;20059;-49
2021/12/16 12:49:51;;;;;;;20.60;12.60;;;;;;;5.71;100.00;102598.50;5095802;28;20052;-49
2021/12/16 12:52:26;;;;;;;25.52;12.43;;;;;;;5.72;100.00;102605.50;5095663;28;20056;-49
2021/12/16 12:55:01;;;;;;;19.70;12.25;;;;;;;5.64;100.00;102595.94;5096229;28;20056;-49
2021/12/16 12:57:32;;;;;;;22.88;12.63;;;;;;;5.75;100.00;102599.38;5094710;28;20062;-49
2021/12/16 13:00:01;;;;;;;20.73;12.60;;;;;;;5.70;100.00;102595.88;5094853;28;20213;-51
2021/12/16 13:02:34;;;;;;;19.38;12.60;;;;;;;5.72;100.00;102599.38;5095228;28;20059;-51
2021/12/16 13:05:07;;;;;;;18.75;11.52;;;;;;;5.83;100.00;102601.91;5094946;28;20503;-49
2021/12/16 13:07:37;;;;;;;19.15;12.23;;;;;;;5.94;100.00;102608.81;5094936;28;20056;-49
2021/12/16 13:10:10;;;;;;;17.75;11.27;;;;;;;5.97;100.00;102609.72;5095597;28;20048;-51
2021/12/16 13:12:47;;;;;;;18.75;11.65;;;;;;;6.01;100.00;102585.97;5095183;28;20051;-52
2021/12/16 13:15:36;;;;;;;17.80;10.88;;;;;;;6.18;100.00;102604.25;5095937;28;20095;-51
2021/12/16 13:24:04;;;;;;;18.00;10.98;;;;;;;6.12;100.00;102601.69;5094326;28;20068;-48
2021/12/16 13:26:37;;;;;;;16.17;10.75;;;;;;;6.04;100.00;102600.88;5095584;28;20056;-49
2021/12/16 13:29:12;;;;;;;17.95;10.52;;;;;;;6.13;100.00;102595.50;5095114;28;20457;-51